Gallatin Field
KBZN : now visible

Airfield :











YOU CAN JOIN US ON...

 
LOGIN :

Register | Disclaimer

   EN    FR    IT 

 









Legend :    VFR   Marginal VFR   IFR   Intensive IFR   Very Intensive IFR
Visi :
Ceiling :
>= 8 km
>= 3000ft
5 to 8 km
1000 to 3000 ft
1500m to 5 km
500 to 1000 ft
800 to 1500m
200 to 500 ft
< 800m
< 200 ft
Symbols :   Thunderstorms  Fog  Heavy snow  Heavy precipitations  Wind > 20 kt






- Airport Elevation : 4473 ft
- IATA code : BZN


KBZN - Gallatin Field

CURRENT METAR :
  • 291256Z 14006KT 8SM CLR M04/M04 A3015 RMK AO2 SLP247 T10391044

EXPIRED METARs :
  • 291156Z 12005KT 10SM BKN065 OVC085 M02/M03 A3014 RMK AO2 SLP240 T10171028 11006 21022 51013
  • 291056Z 15005KT 9SM BKN030 BKN060 OVC075 M01/M02 A3013 RMK AO2 SLP231 T10061017

TAF KBZN
Valid from the 29 at 12:00 until the 30 at 18:00 UTC


291141Z 2912/3018 VRB02KT 6SM BR VCFG BKN030 OVC060
FM291800 VRB05KT P6SM BKN050
FM292100 VRB04KT P6SM SKC
FM300400 VRB03KT 4SM -SHSN BR BKN015 OVC030
PROB30 3004/3010 2SM -SN OVC015
FM301200 VRB04KT P6SM SCT040 BKN060



MET'MAP, your aeronautical weather chart ! - Copyright ORBIFLY December 2007 - Disclaimer

ORBIFLY MET'MAP TEAM :

Programming & Development : Alexandra Zaïnal
Concept & original design : Baudouin d'Aumeries
Assistance for programming : Marc-Olivier Méhu
Technical & hardware support : Manuel Goepfert

Contact : metmap@orbifly.com




SOURCES & CREDITS :

   NOAA       Earth
Advisory